createdAt,value
2019-03-19T00:00:32.848Z,3.28
2019-03-19T00:03:02.005Z,3.29
2019-03-19T00:05:29.120Z,3.36
2019-03-19T00:07:56.225Z,3.37
2019-03-19T00:10:24.340Z,3.32
2019-03-19T00:12:51.383Z,3.33
2019-03-19T00:15:18.767Z,3.43
2019-03-19T00:17:46.089Z,3.57
2019-03-19T00:20:13.354Z,3.68
2019-03-19T00:22:40.401Z,3.84
2019-03-19T00:25:08.640Z,4.03
2019-03-19T00:27:35.691Z,4.23
2019-03-19T00:30:04.454Z,4.51
2019-03-19T00:32:32.554Z,4.63
2019-03-19T00:35:01.417Z,4.81
2019-03-19T00:37:28.515Z,4.96
2019-03-19T00:39:56.793Z,5.06
2019-03-19T00:42:23.835Z,5.20
2019-03-19T00:44:50.890Z,5.38
2019-03-19T00:47:18.071Z,5.47
2019-03-19T00:49:45.085Z,5.56
2019-03-19T00:52:12.416Z,5.68
2019-03-19T00:54:39.520Z,5.73
2019-03-19T00:57:06.632Z,5.72
2019-03-19T00:59:33.702Z,5.75
2019-03-19T01:02:00.806Z,5.88
2019-03-19T01:04:27.852Z,5.93
2019-03-19T01:06:55.014Z,6.05
2019-03-19T01:09:22.557Z,6.10
2019-03-19T01:11:51.175Z,6.13
2019-03-19T01:14:18.365Z,6.22
2019-03-19T01:16:46.656Z,6.34
2019-03-19T01:19:14.114Z,6.30
2019-03-19T01:21:41.185Z,6.31
2019-03-19T01:24:08.258Z,6.27
2019-03-19T01:26:35.303Z,6.11
2019-03-19T01:29:02.448Z,5.80
2019-03-19T01:31:29.826Z,5.51
2019-03-19T01:33:57.341Z,5.36
2019-03-19T01:36:24.382Z,5.22
2019-03-19T01:38:51.607Z,5.16
2019-03-19T01:41:18.920Z,5.09
2019-03-19T01:43:46.008Z,5.15
2019-03-19T01:46:14.900Z,5.39
2019-03-19T01:48:42.268Z,5.59
2019-03-19T01:51:09.355Z,5.74
2019-03-19T01:53:36.446Z,5.62
2019-03-19T01:56:05.403Z,5.36
2019-03-19T01:58:32.452Z,5.25
2019-03-19T02:01:00.786Z,5.11
2019-03-19T02:03:28.254Z,4.97
2019-03-19T02:05:55.446Z,4.85
2019-03-19T02:08:22.562Z,4.81
2019-03-19T02:10:50.728Z,4.83
2019-03-19T02:13:17.761Z,4.77
2019-03-19T02:15:44.951Z,4.78
2019-03-19T02:18:12.529Z,4.70
2019-03-19T02:20:39.564Z,4.61
2019-03-19T02:23:06.640Z,4.58
2019-03-19T02:25:34.844Z,4.76
2019-03-19T02:28:02.226Z,4.62
2019-03-19T02:30:29.355Z,4.62
2019-03-19T02:32:58.229Z,4.57
2019-03-19T02:35:25.240Z,4.59
2019-03-19T02:37:52.379Z,4.67
2019-03-19T02:40:20.530Z,4.76
2019-03-19T02:42:48.572Z,4.89
2019-03-19T02:45:15.708Z,5.05
2019-03-19T02:47:42.776Z,5.16
2019-03-19T02:50:09.941Z,5.22
2019-03-19T02:52:37.134Z,5.00
2019-03-19T02:55:05.938Z,4.41
2019-03-19T02:57:32.999Z,4.31
2019-03-19T03:00:00.622Z,3.42
2019-03-19T03:02:27.854Z,3.27
2019-03-19T03:04:55.295Z,3.34
2019-03-19T03:07:22.410Z,2.83
2019-03-19T03:09:51.240Z,2.49
2019-03-19T03:12:18.318Z,2.27
2019-03-19T03:14:46.333Z,2.07
2019-03-19T03:17:13.563Z,2.20
2019-03-19T03:19:40.767Z,2.58
2019-03-19T03:22:07.829Z,2.82
2019-03-19T03:24:34.881Z,3.02
2019-03-19T03:27:02.524Z,3.00
2019-03-19T03:29:32.550Z,2.95
2019-03-19T03:31:59.654Z,3.12
2019-03-19T03:34:27.974Z,3.20
2019-03-19T03:36:55.103Z,3.15
2019-03-19T03:39:22.297Z,3.08
2019-03-19T03:41:49.646Z,2.97
2019-03-19T03:44:17.527Z,2.34
2019-03-19T03:46:44.632Z,1.79
2019-03-19T03:49:12.772Z,1.39
2019-03-19T03:51:40.294Z,1.36
2019-03-19T03:54:07.323Z,1.23
2019-03-19T03:56:36.340Z,1.11
2019-03-19T03:59:03.453Z,0.94
2019-03-19T04:01:30.720Z,0.87
2019-03-19T04:03:57.751Z,1.19
2019-03-19T04:06:24.870Z,1.50
2019-03-19T04:08:51.930Z,1.75
2019-03-19T04:11:19.506Z,1.87
2019-03-19T04:13:46.649Z,1.88
2019-03-19T04:16:13.690Z,1.78
2019-03-19T04:18:41.150Z,1.75
2019-03-19T04:21:10.239Z,1.66
2019-03-19T04:23:37.325Z,1.54
2019-03-19T04:26:04.360Z,1.58
2019-03-19T04:28:31.443Z,1.63
2019-03-19T04:30:59.679Z,1.66
2019-03-19T04:33:26.716Z,1.73
2019-03-19T04:35:53.816Z,1.72
2019-03-19T04:38:20.858Z,1.64
2019-03-19T04:40:49.603Z,1.66
2019-03-19T04:43:17.225Z,1.86
2019-03-19T04:45:44.280Z,1.87
2019-03-19T04:48:11.328Z,1.88
2019-03-19T04:50:39.745Z,1.66
2019-03-19T04:53:06.851Z,1.46
2019-03-19T04:55:34.084Z,1.27
2019-03-19T04:58:01.452Z,1.20
2019-03-19T05:00:28.528Z,1.17
2019-03-19T05:02:55.587Z,1.18
2019-03-19T05:05:23.976Z,1.19
2019-03-19T05:07:51.016Z,1.27
2019-03-19T05:10:18.261Z,1.27
2019-03-19T05:12:46.664Z,1.26
2019-03-19T05:15:13.764Z,1.28
2019-03-19T05:17:41.089Z,1.25
2019-03-19T05:20:08.921Z,1.26
2019-03-19T05:22:36.020Z,1.27
2019-03-19T05:25:03.466Z,1.32
2019-03-19T05:27:37.268Z,1.37
2019-03-19T05:29:59.581Z,1.33
2019-03-19T05:32:26.656Z,1.29
2019-03-19T05:34:54.878Z,1.45
2019-03-19T05:37:21.897Z,1.53
2019-03-19T05:39:48.937Z,1.68
2019-03-19T05:42:16.009Z,1.58
2019-03-19T05:44:44.336Z,1.52
2019-03-19T05:47:11.482Z,1.58
2019-03-19T05:49:38.613Z,1.66
2019-03-19T05:52:05.648Z,1.84
2019-03-19T05:54:32.768Z,1.74
2019-03-19T05:56:59.878Z,1.60
2019-03-19T05:59:27.369Z,1.65
2019-03-19T06:01:54.407Z,1.86
2019-03-19T06:04:21.501Z,2.30
2019-03-19T06:06:48.522Z,2.52
2019-03-19T06:09:15.564Z,2.71
2019-03-19T06:11:42.689Z,2.87
2019-03-19T06:14:10.741Z,3.07
2019-03-19T06:16:37.958Z,3.29
2019-03-19T06:19:05.034Z,3.56
2019-03-19T06:21:32.407Z,3.75
2019-03-19T06:23:59.977Z,4.05
2019-03-19T06:26:27.039Z,4.35
2019-03-19T06:28:54.079Z,4.69
2019-03-19T06:31:21.569Z,5.04
2019-03-19T06:33:48.641Z,5.45
2019-03-19T06:36:15.795Z,5.90
2019-03-19T06:38:43.541Z,6.24
2019-03-19T06:41:10.707Z,6.25
2019-03-19T06:43:37.750Z,6.26
2019-03-19T06:46:04.786Z,6.63
2019-03-19T06:48:31.896Z,6.95
2019-03-19T06:50:59.007Z,7.33
2019-03-19T06:53:26.382Z,7.72
2019-03-19T06:55:54.031Z,8.16
2019-03-19T06:58:21.125Z,8.67
2019-03-19T07:00:51.201Z,9.10
2019-03-19T07:03:28.932Z,9.59
2019-03-19T07:06:25.031Z,9.99
2019-03-19T07:08:53.481Z,10.29
2019-03-19T07:11:20.832Z,10.69
2019-03-19T07:13:49.179Z,11.12
2019-03-19T07:16:16.350Z,11.37
2019-03-19T07:18:43.768Z,11.60
2019-03-19T07:21:12.607Z,11.80
2019-03-19T07:23:39.723Z,12.09
2019-03-19T07:26:07.128Z,11.61
2019-03-19T07:28:34.190Z,11.86
2019-03-19T07:31:01.302Z,12.36
2019-03-19T07:33:28.841Z,12.66
2019-03-19T07:35:56.152Z,13.09
2019-03-19T07:38:23.266Z,13.28
2019-03-19T07:40:50.406Z,12.20
2019-03-19T07:43:17.481Z,11.28
2019-03-19T07:45:46.036Z,10.90
2019-03-19T07:48:13.520Z,11.45
2019-03-19T07:50:40.560Z,10.72
2019-03-19T07:53:14.234Z,10.26
2019-03-19T07:55:41.269Z,10.85
2019-03-19T07:58:08.296Z,11.64
2019-03-19T08:00:35.371Z,11.02
2019-03-19T08:03:15.655Z,11.60
2019-03-19T08:05:34.410Z,12.68
2019-03-19T08:08:01.459Z,13.81
2019-03-19T08:10:28.515Z,14.49
2019-03-19T08:12:56.181Z,14.90
2019-03-19T08:15:23.279Z,15.63
2019-03-19T08:17:50.930Z,15.98
2019-03-19T08:20:17.960Z,16.06
2019-03-19T08:22:45.055Z,16.33
2019-03-19T08:25:12.791Z,16.67
2019-03-19T08:27:39.867Z,17.09
2019-03-19T08:30:09.660Z,17.02
2019-03-19T08:32:36.709Z,16.81
2019-03-19T08:35:07.206Z,15.86
2019-03-19T08:37:34.260Z,15.30
2019-03-19T08:40:01.280Z,15.40
2019-03-19T08:42:30.698Z,15.06
2019-03-19T08:44:58.952Z,11.90
2019-03-19T08:47:25.984Z,12.84
2019-03-19T08:49:53.024Z,13.52
2019-03-19T08:52:20.230Z,13.95
2019-03-19T08:54:47.905Z,14.81
2019-03-19T08:57:14.969Z,13.06
2019-03-19T08:59:42.028Z,11.93
2019-03-19T09:02:09.126Z,10.60
2019-03-19T09:04:37.178Z,9.33
2019-03-19T09:07:04.231Z,9.55
2019-03-19T09:09:31.805Z,10.94
2019-03-19T09:11:58.964Z,12.91
2019-03-19T09:14:26.055Z,14.25
2019-03-19T09:16:55.844Z,11.55
2019-03-19T09:19:22.897Z,8.81
2019-03-19T09:21:49.946Z,7.73
2019-03-19T09:24:17.346Z,9.80
2019-03-19T09:26:44.396Z,10.74
2019-03-19T09:29:16.944Z,11.88
2019-03-19T09:31:40.723Z,12.04
2019-03-19T09:34:07.789Z,11.79
2019-03-19T09:36:34.898Z,12.47
2019-03-19T09:39:02.065Z,13.96
2019-03-19T09:41:31.239Z,15.57
2019-03-19T09:43:58.297Z,14.40
2019-03-19T09:46:25.686Z,14.81
2019-03-19T09:48:52.732Z,15.05
2019-03-19T09:51:19.857Z,17.79
2019-03-19T09:53:46.878Z,18.57
2019-03-19T09:56:14.241Z,18.34
2019-03-19T09:58:41.285Z,18.19
2019-03-19T10:01:10.303Z,17.73
2019-03-19T10:03:38.654Z,17.80
2019-03-19T10:06:13.868Z,16.64
2019-03-19T10:08:34.691Z,13.46
2019-03-19T10:11:01.747Z,14.16
2019-03-19T10:13:28.912Z,18.32
2019-03-19T10:15:56.388Z,19.15
2019-03-19T10:18:23.411Z,18.63
2019-03-19T10:20:50.479Z,20.53
2019-03-19T10:23:17.883Z,16.75
2019-03-19T10:25:45.022Z,18.22
2019-03-19T10:28:12.142Z,16.99
2019-03-19T10:30:39.857Z,15.49
2019-03-19T10:33:07.047Z,12.58
2019-03-19T10:35:34.260Z,10.93
2019-03-19T10:38:03.226Z,9.71
2019-03-19T10:40:30.587Z,9.90
2019-03-19T10:42:57.696Z,11.01
2019-03-19T10:45:24.812Z,10.69
2019-03-19T10:47:55.199Z,10.06
2019-03-19T10:50:22.311Z,10.60
2019-03-19T10:52:49.441Z,12.84
2019-03-19T10:55:16.559Z,19.57
2019-03-19T10:57:43.959Z,24.02
2019-03-19T11:00:14.696Z,24.07
2019-03-19T11:02:41.909Z,24.35
2019-03-19T11:05:11.620Z,26.24
2019-03-19T11:07:38.660Z,27.30
2019-03-19T11:10:05.832Z,27.40
2019-03-19T11:12:32.931Z,27.62
2019-03-19T11:15:00.420Z,29.10
2019-03-19T11:17:28.554Z,30.20
2019-03-19T11:19:55.829Z,30.54
2019-03-19T11:22:22.897Z,32.51
2019-03-19T11:24:51.761Z,33.43
2019-03-19T11:27:19.087Z,32.12
2019-03-19T11:29:46.147Z,31.26
2019-03-19T11:32:13.185Z,33.05
2019-03-19T11:34:41.382Z,31.16
2019-03-19T11:37:08.453Z,25.45
2019-03-19T11:39:35.542Z,28.78
2019-03-19T11:42:03.042Z,28.80
2019-03-19T11:44:30.107Z,29.43
2019-03-19T11:46:57.155Z,19.86
2019-03-19T11:49:24.543Z,20.29
2019-03-19T11:51:51.583Z,16.85
2019-03-19T11:54:18.635Z,16.06
2019-03-19T11:56:45.713Z,21.18
2019-03-19T11:59:12.916Z,26.06
2019-03-19T12:01:40.318Z,23.40
2019-03-19T12:04:09.040Z,25.17
2019-03-19T12:06:36.045Z,28.51
2019-03-19T12:09:05.752Z,32.57
2019-03-19T12:11:33.631Z,34.96
2019-03-19T12:14:01.016Z,37.70
2019-03-19T12:16:28.558Z,39.20
2019-03-19T12:18:55.729Z,31.34
2019-03-19T12:21:22.844Z,22.93
2019-03-19T12:23:50.291Z,23.57
2019-03-19T12:26:19.579Z,21.89
2019-03-19T12:28:47.723Z,17.61
2019-03-19T12:31:15.256Z,21.33
2019-03-19T12:33:42.406Z,25.30
2019-03-19T12:36:09.466Z,27.57
2019-03-19T12:38:37.037Z,31.85
2019-03-19T12:41:04.118Z,33.61
2019-03-19T12:43:32.328Z,35.09
2019-03-19T12:45:59.365Z,36.73
2019-03-19T12:48:26.411Z,33.36
2019-03-19T12:50:53.500Z,33.79
2019-03-19T12:53:22.208Z,27.29
2019-03-19T12:55:49.646Z,28.68
2019-03-19T12:58:16.803Z,24.73
2019-03-19T13:00:44.443Z,22.08
2019-03-19T13:03:12.885Z,26.59
2019-03-19T13:05:40.462Z,27.94
2019-03-19T13:08:08.717Z,29.97
2019-03-19T13:10:37.026Z,30.69
2019-03-19T13:13:09.597Z,26.00
2019-03-19T13:15:38.748Z,24.79
2019-03-19T13:18:06.481Z,28.19
2019-03-19T13:20:34.029Z,25.43
2019-03-19T13:23:01.373Z,28.96
2019-03-19T13:25:28.579Z,25.71
2019-03-19T13:27:57.461Z,25.09
2019-03-19T13:30:24.649Z,26.51
2019-03-19T13:32:53.995Z,26.05
2019-03-19T13:35:21.475Z,26.17
2019-03-19T13:37:48.524Z,31.39
2019-03-19T13:40:16.260Z,35.10
2019-03-19T13:42:45.138Z,35.44
2019-03-19T13:45:12.863Z,34.99
2019-03-19T13:47:39.927Z,36.28
2019-03-19T13:50:07.775Z,34.62
2019-03-19T13:52:34.814Z,28.82
2019-03-19T13:55:05.561Z,24.90
2019-03-19T13:57:49.848Z,25.78
2019-03-19T14:00:26.677Z,30.79
2019-03-19T14:02:54.508Z,32.75
2019-03-19T14:05:21.573Z,34.22
2019-03-19T14:07:48.617Z,32.05
2019-03-19T14:10:15.973Z,33.55
2019-03-19T14:13:03.897Z,33.82
2019-03-19T14:15:41.917Z,35.35
2019-03-19T14:18:10.366Z,35.40
2019-03-19T14:20:37.422Z,35.59
2019-03-19T14:23:04.597Z,30.53
2019-03-19T14:25:31.634Z,24.27
2019-03-19T14:27:58.732Z,24.43
2019-03-19T14:30:27.428Z,28.44
2019-03-19T14:32:54.494Z,30.70
2019-03-19T14:35:23.589Z,32.69
2019-03-19T14:37:52.212Z,35.19
2019-03-19T14:40:21.471Z,36.18
2019-03-19T14:42:48.670Z,31.02
2019-03-19T14:45:16.165Z,34.01
2019-03-19T14:47:44.028Z,33.52
2019-03-19T14:50:12.259Z,33.57
2019-03-19T14:52:43.717Z,35.59
2019-03-19T14:55:10.268Z,37.61
2019-03-19T14:57:37.502Z,38.68
2019-03-19T15:00:07.625Z,37.84
2019-03-19T15:02:34.979Z,37.13
2019-03-19T15:05:02.433Z,34.06
2019-03-19T15:07:29.574Z,31.66
2019-03-19T15:09:58.111Z,29.00
2019-03-19T15:12:25.153Z,28.13
2019-03-19T15:14:52.351Z,24.27
2019-03-19T15:17:22.680Z,18.64
2019-03-19T15:19:54.102Z,17.47
2019-03-19T15:22:31.898Z,16.60
2019-03-19T15:24:51.296Z,19.03
2019-03-19T15:27:18.736Z,19.59
2019-03-19T15:29:45.800Z,22.14
2019-03-19T15:32:12.905Z,18.80
2019-03-19T15:34:40.114Z,23.54
2019-03-19T15:37:07.169Z,27.35
2019-03-19T15:39:41.185Z,28.91
2019-03-19T15:42:11.888Z,30.07
2019-03-19T15:44:38.956Z,28.96
2019-03-19T15:47:06.158Z,28.45
2019-03-19T15:49:38.407Z,29.93
2019-03-19T15:52:06.702Z,27.73
2019-03-19T15:54:35.115Z,29.16
2019-03-19T15:57:02.187Z,28.93
2019-03-19T15:59:29.371Z,28.28
2019-03-19T16:01:57.605Z,28.39
2019-03-19T16:04:26.059Z,27.65
2019-03-19T16:06:53.195Z,27.06
2019-03-19T16:09:20.372Z,21.63
2019-03-19T16:11:48.059Z,19.53
2019-03-19T16:14:15.206Z,17.10
2019-03-19T16:16:42.254Z,21.20
2019-03-19T16:19:09.745Z,17.83
2019-03-19T16:21:36.799Z,16.90
2019-03-19T16:24:03.836Z,15.87
2019-03-19T16:26:30.881Z,17.48
2019-03-19T16:29:02.068Z,19.60
2019-03-19T16:31:29.460Z,20.68
2019-03-19T16:34:03.013Z,21.74
2019-03-19T16:36:38.710Z,20.60
2019-03-19T16:39:06.468Z,19.40
2019-03-19T16:41:33.597Z,20.99
2019-03-19T16:44:05.104Z,20.24
2019-03-19T16:46:32.504Z,18.49
2019-03-19T16:48:59.606Z,16.65
2019-03-19T16:51:26.965Z,15.57
2019-03-19T16:53:54.583Z,14.71
2019-03-19T16:56:23.071Z,15.02
2019-03-19T16:58:57.509Z,16.09
2019-03-19T17:01:24.589Z,14.79
2019-03-19T17:03:52.074Z,15.43
2019-03-19T17:06:20.244Z,15.44
2019-03-19T17:08:47.403Z,14.95
2019-03-19T17:11:14.523Z,13.70
2019-03-19T17:13:41.717Z,13.75
2019-03-19T17:16:08.982Z,12.91
2019-03-19T17:18:36.385Z,12.12
2019-03-19T17:21:04.841Z,11.36
2019-03-19T17:23:32.924Z,11.14
2019-03-19T17:26:01.911Z,10.87
2019-03-19T17:28:29.482Z,10.70
2019-03-19T17:30:56.520Z,10.25
2019-03-19T17:33:24.054Z,9.95
2019-03-19T17:35:51.450Z,9.50
2019-03-19T17:38:19.735Z,9.22
2019-03-19T17:40:47.910Z,9.03
2019-03-19T17:43:16.708Z,8.88
2019-03-19T17:45:43.808Z,8.69
2019-03-19T17:48:16.404Z,8.49
2019-03-19T17:50:42.279Z,8.37
2019-03-19T17:53:11.185Z,8.20
2019-03-19T17:55:39.416Z,8.09
2019-03-19T17:58:06.619Z,8.48
2019-03-19T18:00:34.907Z,8.73
2019-03-19T18:03:03.482Z,8.79
2019-03-19T18:05:32.762Z,8.90
2019-03-19T18:07:59.851Z,8.91
2019-03-19T18:10:26.943Z,8.98
2019-03-19T18:12:54.265Z,8.98
2019-03-19T18:15:21.701Z,8.83
2019-03-19T18:17:48.838Z,8.75
2019-03-19T18:20:16.209Z,8.74
2019-03-19T18:22:44.267Z,8.71
2019-03-19T18:25:11.786Z,8.70
2019-03-19T18:27:39.176Z,8.66
2019-03-19T18:30:08.088Z,8.60
2019-03-19T18:32:35.622Z,8.47
2019-03-19T18:35:03.512Z,8.09
2019-03-19T18:37:31.766Z,7.59
2019-03-19T18:39:59.021Z,7.20
2019-03-19T18:42:26.422Z,7.02
2019-03-19T18:44:55.007Z,6.96
2019-03-19T18:47:22.102Z,6.91
2019-03-19T18:49:54.540Z,6.91
2019-03-19T18:52:22.089Z,6.87
2019-03-19T18:54:49.184Z,6.76
2019-03-19T18:57:16.277Z,6.89
2019-03-19T18:59:43.351Z,6.90
2019-03-19T19:02:10.437Z,6.94
2019-03-19T19:04:39.367Z,7.13
2019-03-19T19:07:06.629Z,7.12
2019-03-19T19:09:33.722Z,7.00
2019-03-19T19:12:01.045Z,7.04
2019-03-19T19:14:28.129Z,6.94
2019-03-19T19:16:55.234Z,6.77
2019-03-19T19:19:22.716Z,6.72
2019-03-19T19:21:52.278Z,6.60
2019-03-19T19:24:19.346Z,6.51
2019-03-19T19:26:49.370Z,6.64
2019-03-19T19:29:18.363Z,6.66
2019-03-19T19:31:45.462Z,6.78
2019-03-19T19:34:13.240Z,6.82
2019-03-19T19:36:40.398Z,6.78
2019-03-19T19:39:07.904Z,6.65
2019-03-19T19:41:35.463Z,6.55
2019-03-19T19:44:02.652Z,6.38
2019-03-19T19:46:29.976Z,6.46
2019-03-19T19:48:57.210Z,6.30
2019-03-19T19:51:24.288Z,6.16
2019-03-19T19:54:26.492Z,6.16
2019-03-19T19:57:02.061Z,6.14
2019-03-19T19:59:29.235Z,6.07
2019-03-19T20:01:56.330Z,5.89
2019-03-19T20:04:23.399Z,5.95
2019-03-19T20:06:50.511Z,5.78
2019-03-19T20:09:18.037Z,5.63
2019-03-19T20:11:45.119Z,5.63
2019-03-19T20:14:12.348Z,5.61
2019-03-19T20:16:39.434Z,5.62
2019-03-19T20:19:06.622Z,5.38
2019-03-19T20:21:33.863Z,5.34
2019-03-19T20:24:00.962Z,5.39
2019-03-19T20:26:28.283Z,5.26
2019-03-19T20:28:56.019Z,5.23
2019-03-19T20:31:23.084Z,5.31
2019-03-19T20:33:50.336Z,5.22
2019-03-19T20:36:17.474Z,5.22
2019-03-19T20:38:44.585Z,5.21
2019-03-19T20:41:11.682Z,5.29
2019-03-19T20:43:39.222Z,5.23
2019-03-19T20:46:06.397Z,5.18
2019-03-19T20:48:35.904Z,5.16
2019-03-19T20:51:03.832Z,5.27
2019-03-19T20:53:32.004Z,5.35
2019-03-19T20:55:59.161Z,5.52
2019-03-19T20:58:26.295Z,5.27
2019-03-19T21:00:55.160Z,5.13
2019-03-19T21:03:22.231Z,5.21
2019-03-19T21:05:49.553Z,5.26
2019-03-19T21:08:17.187Z,5.23
2019-03-19T21:10:44.315Z,5.13
2019-03-19T21:13:14.350Z,5.00
2019-03-19T21:15:41.405Z,4.87
2019-03-19T21:18:08.575Z,4.79
2019-03-19T21:20:35.682Z,4.72
2019-03-19T21:23:04.861Z,4.79
2019-03-19T21:25:31.986Z,4.80
2019-03-19T21:27:59.156Z,4.85
2019-03-19T21:30:26.419Z,4.93
2019-03-19T21:32:53.532Z,5.06
2019-03-19T21:35:28.636Z,5.09
2019-03-19T21:37:56.457Z,4.61
2019-03-19T21:40:26.353Z,3.90
2019-03-19T21:43:05.734Z,3.36
2019-03-19T21:45:35.022Z,3.17
2019-03-19T21:48:03.292Z,3.05
2019-03-19T21:50:30.521Z,3.11
2019-03-19T21:52:57.695Z,2.74
2019-03-19T21:55:25.146Z,2.80
2019-03-19T21:57:52.230Z,2.93
2019-03-19T22:00:19.471Z,2.88
2019-03-19T22:02:47.223Z,2.65
2019-03-19T22:05:15.956Z,2.72
2019-03-19T22:07:42.989Z,3.02
2019-03-19T22:10:11.532Z,3.54
2019-03-19T22:12:39.935Z,3.77
2019-03-19T22:15:13.446Z,3.77
2019-03-19T22:17:41.039Z,3.85
2019-03-19T22:20:09.599Z,3.82
2019-03-19T22:22:36.728Z,3.70
2019-03-19T22:25:05.333Z,3.22
2019-03-19T22:27:32.427Z,2.95
2019-03-19T22:29:59.615Z,2.99
2019-03-19T22:32:26.834Z,3.19
2019-03-19T22:34:53.984Z,3.14
2019-03-19T22:37:21.205Z,3.23
2019-03-19T22:39:48.320Z,3.35
2019-03-19T22:42:15.381Z,3.47
2019-03-19T22:44:42.778Z,3.55
2019-03-19T22:47:10.027Z,3.52
2019-03-19T22:49:37.065Z,3.44
2019-03-19T22:52:04.138Z,3.29
2019-03-19T22:54:31.423Z,3.25
2019-03-19T22:56:58.505Z,3.10
2019-03-19T22:59:26.043Z,2.85
2019-03-19T23:01:53.761Z,2.59
2019-03-19T23:04:27.258Z,2.59
2019-03-19T23:06:50.317Z,2.66
2019-03-19T23:09:17.500Z,2.67
2019-03-19T23:11:44.547Z,2.67
2019-03-19T23:14:12.118Z,2.72
2019-03-19T23:16:39.208Z,2.69
2019-03-19T23:19:08.006Z,2.70
2019-03-19T23:21:35.050Z,2.60
2019-03-19T23:24:02.464Z,2.59
2019-03-19T23:26:30.805Z,2.51
2019-03-19T23:28:57.958Z,2.45
2019-03-19T23:31:25.198Z,2.40
2019-03-19T23:33:53.531Z,2.14
2019-03-19T23:36:20.775Z,2.11
2019-03-19T23:38:47.939Z,2.11
2019-03-19T23:41:15.110Z,2.23
2019-03-19T23:43:43.284Z,2.28
2019-03-19T23:46:10.479Z,2.18
2019-03-19T23:48:37.615Z,2.28
2019-03-19T23:51:04.745Z,2.30
2019-03-19T23:53:31.923Z,2.36
2019-03-19T23:55:59.095Z,2.39
2019-03-19T23:58:26.242Z,2.37
